Time;durP1;ratioP1;P1;durP2;ratioP2;P2;SDS_P1;SDS_P2;PMS_P1;PMS_P2;Temp;Humidity;BMP_temperature;BMP_pressure;BME280_temperature;BME280_humidity;BME280_pressure;Samples;Min_cycle;Max_cycle;Signal;HPM_P1;HPM_P2
2022/12/14 00:01:21;;;;;;;65.18;32.28;;;-4.00;99.90;;;;;;5083348;27;20097;-86
2022/12/14 00:03:47;;;;;;;67.10;31.92;;;-4.00;99.90;;;;;;5116883;27;20066;-87
2022/12/14 00:06:16;;;;;;;66.07;33.13;;;-4.00;99.90;;;;;;5099912;27;20046;-86
2022/12/14 00:08:42;;;;;;;70.60;34.47;;;-4.00;99.90;;;;;;5116663;27;20105;-86
2022/12/14 00:11:09;;;;;;;68.85;32.78;;;-4.00;99.90;;;;;;5116691;27;20097;-87
2022/12/14 00:13:34;;;;;;;71.45;32.13;;;-4.00;99.90;;;;;;5099854;27;20073;-86
2022/12/14 00:16:08;;;;;;;67.38;32.97;;;-4.00;99.90;;;;;;5099684;27;20047;-87
2022/12/14 00:18:33;;;;;;;64.83;31.97;;;-4.10;99.90;;;;;;5116532;27;20047;-87
2022/12/14 00:21:04;;;;;;;63.10;32.08;;;-4.10;99.90;;;;;;5082890;27;20315;-87
2022/12/14 00:23:30;;;;;;;64.15;31.52;;;-4.10;99.90;;;;;;5082177;27;20055;-86
2022/12/14 00:25:56;;;;;;;67.32;31.48;;;-4.20;99.90;;;;;;5099433;27;20046;-87
2022/12/14 00:28:21;;;;;;;65.45;30.38;;;-2.50;99.90;;;;;;5133759;27;20062;-87
2022/12/14 00:30:47;;;;;;;63.00;31.10;;;-4.20;99.90;;;;;;5116636;27;20051;-87
2022/12/14 00:33:12;;;;;;;64.55;30.85;;;-4.20;99.90;;;;;;5116515;27;20082;-86
2022/12/14 00:35:38;;;;;;;70.93;31.73;;;-4.20;99.90;;;;;;5116315;27;20075;-87
2022/12/14 00:38:04;;;;;;;68.90;31.70;;;-4.20;99.90;;;;;;5116491;27;20054;-87
2022/12/14 00:40:29;;;;;;;62.95;30.73;;;-2.60;99.90;;;;;;5133070;27;20050;-87
2022/12/14 00:42:55;;;;;;;64.80;30.85;;;-4.30;99.90;;;;;;5133481;27;20039;-87
2022/12/14 00:45:21;;;;;;;62.05;29.48;;;-4.30;99.90;;;;;;5132902;27;20134;-87
2022/12/14 00:47:46;;;;;;;60.22;28.65;;;-4.30;99.90;;;;;;5098447;27;20497;-86
2022/12/14 00:50:12;;;;;;;61.58;30.10;;;-4.30;99.90;;;;;;5132534;27;20043;-87
2022/12/14 00:52:37;;;;;;;62.08;30.50;;;-4.40;99.90;;;;;;5132193;27;20052;-87
2022/12/14 00:55:03;;;;;;;60.40;27.95;;;-4.30;99.90;;;;;;5132910;27;20058;-86
2022/12/14 00:57:29;;;;;;;64.30;28.38;;;-4.30;99.90;;;;;;5132795;27;20379;-86
2022/12/14 00:59:55;;;;;;;54.72;27.17;;;-4.20;99.90;;;;;;5098417;27;20054;-86
2022/12/14 01:02:20;;;;;;;63.33;29.15;;;-4.20;99.90;;;;;;5115460;27;20394;-86
2022/12/14 01:04:46;;;;;;;60.08;30.00;;;-4.20;99.90;;;;;;5132986;27;20478;-87
2022/12/14 01:07:12;;;;;;;69.20;31.15;;;-4.30;99.90;;;;;;5115387;27;20046;-86
2022/12/14 01:09:37;;;;;;;68.07;29.67;;;-4.40;99.90;;;;;;5098619;27;20059;-86
2022/12/14 01:12:03;;;;;;;67.05;30.08;;;-4.40;99.90;;;;;;5115247;27;20135;-86
2022/12/14 01:14:29;;;;;;;64.45;30.92;;;-4.50;99.90;;;;;;5098787;27;20051;-86
2022/12/14 01:16:54;;;;;;;62.83;29.20;;;-4.50;99.90;;;;;;5115122;27;20051;-87
2022/12/14 01:19:20;;;;;;;63.80;28.98;;;-4.50;99.90;;;;;;5115401;27;20494;-86
2022/12/14 01:21:46;;;;;;;65.93;30.20;;;-4.50;99.90;;;;;;5098257;27;20070;-86
2022/12/14 01:24:11;;;;;;;55.92;28.20;;;-3.50;99.90;;;;;;5114886;27;20078;-87
2022/12/14 01:26:38;;;;;;;60.97;28.80;;;-4.50;99.90;;;;;;5115086;27;20051;-86
2022/12/14 01:29:04;;;;;;;60.47;27.38;;;-4.40;99.90;;;;;;5114621;27;20447;-86
2022/12/14 01:31:31;;;;;;;59.65;27.95;;;-4.10;99.90;;;;;;5114685;27;20085;-87
2022/12/14 01:33:57;;;;;;;54.20;27.05;;;-4.50;99.90;;;;;;5114824;27;20495;-86
2022/12/14 01:36:24;;;;;;;59.30;28.73;;;-4.60;99.90;;;;;;5115100;27;20064;-86
2022/12/14 01:38:55;;;;;;;66.60;28.30;;;-4.70;99.90;;;;;;5097942;27;20120;-87
2022/12/14 01:41:31;;;;;;;61.38;28.90;;;-4.70;99.90;;;;;;5098044;27;20100;-86
2022/12/14 01:43:58;;;;;;;60.97;29.50;;;-4.90;99.90;;;;;;5114612;27;20047;-86
2022/12/14 01:46:45;;;;;;;64.93;30.95;;;-5.00;99.90;;;;;;5114366;27;20074;-87
2022/12/14 01:49:27;;;;;;;70.13;32.53;;;-5.00;99.90;;;;;;5083061;27;20171;-87
2022/12/14 01:52:08;;;;;;;66.63;30.73;;;-5.10;99.90;;;;;;5113793;27;20043;-86
2022/12/14 01:54:34;;;;;;;67.13;31.50;;;-5.10;99.90;;;;;;5098024;27;20046;-87
2022/12/14 01:57:00;;;;;;;71.70;33.10;;;-5.20;99.90;;;;;;5097623;27;20050;-86
2022/12/14 01:59:33;;;;;;;69.10;30.13;;;-5.20;99.90;;;;;;5097279;27;20039;-87
2022/12/14 02:02:00;;;;;;;65.28;31.60;;;-5.20;99.90;;;;;;5097256;27;20051;-86
2022/12/14 02:04:26;;;;;;;71.68;32.00;;;-5.20;99.90;;;;;;5097629;27;20084;-86
2022/12/14 02:06:51;;;;;;;68.78;31.33;;;-5.20;99.90;;;;;;5131246;27;20051;-87
2022/12/14 02:09:19;;;;;;;70.32;31.77;;;-5.20;99.90;;;;;;5096877;27;20043;-86
2022/12/14 02:12:14;;;;;;;75.35;31.23;;;-5.20;99.90;;;;;;5097001;27;20146;-85
2022/12/14 02:14:40;;;;;;;;;;;-5.20;99.90;;;;;;5116689;27;20490;-86
2022/12/14 02:17:06;;;;;;;64.97;29.52;;;-5.30;99.90;;;;;;5113615;27;19960;-85
2022/12/14 02:19:32;;;;;;;62.53;30.50;;;-4.00;99.90;;;;;;5113747;27;20086;-86
2022/12/14 02:22:10;;;;;;;76.78;32.53;;;-5.40;99.90;;;;;;5113688;27;20431;-86
2022/12/14 02:24:54;;;;;;;72.35;30.77;;;-5.40;99.90;;;;;;5113437;27;20051;-86
2022/12/14 02:27:32;;;;;;;69.65;31.45;;;-5.50;99.90;;;;;;5131215;27;20104;-86
2022/12/14 02:30:05;;;;;;;63.55;29.02;;;-5.50;99.90;;;;;;5113662;27;20047;-86
2022/12/14 02:33:03;;;;;;;63.83;29.13;;;-5.50;99.90;;;;;;5130877;27;20043;-84
2022/12/14 02:35:43;;;;;;;67.88;30.13;;;-5.50;99.90;;;;;;5116161;27;20434;-86
2022/12/14 02:38:17;;;;;;;63.65;29.30;;;-5.50;99.90;;;;;;5114942;27;20051;-86
2022/12/14 02:41:02;;;;;;;64.05;30.48;;;-5.50;99.90;;;;;;5113339;27;20119;-85
2022/12/14 02:44:06;;;;;;;;;;;-5.50;99.90;;;;;;5114031;27;20050;-85
2022/12/14 02:46:40;;;;;;;66.25;30.45;;;-5.50;99.90;;;;;;5091615;28;20600;-85
2022/12/14 02:49:39;;;;;;;65.13;26.48;;;-5.60;99.90;;;;;;5074438;28;20039;-84
2022/12/14 02:52:33;;;;;;;64.63;27.92;;;-5.60;99.90;;;;;;5122073;27;20051;-85
2022/12/14 02:55:10;;;;;;;68.47;30.10;;;-5.60;99.90;;;;;;5112784;27;20463;-85
2022/12/14 02:57:48;;;;;;;69.07;29.42;;;-5.60;99.90;;;;;;5097194;27;20109;-86
2022/12/14 03:00:14;;;;;;;69.80;28.42;;;-5.70;99.90;;;;;;5098232;28;20104;-85
2022/12/14 03:02:41;;;;;;;64.10;27.52;;;-5.70;99.90;;;;;;5096074;27;20513;-85
2022/12/14 03:05:06;;;;;;;66.47;29.40;;;-5.70;99.90;;;;;;5113461;28;20054;-85
2022/12/14 03:07:35;;;;;;;65.72;28.42;;;-5.70;99.90;;;;;;5129850;28;20051;-85
2022/12/14 03:10:18;;;;;;;65.43;30.17;;;-5.70;99.90;;;;;;5112991;28;20418;-85
2022/12/14 03:12:46;;;;;;;73.32;29.58;;;-5.80;99.90;;;;;;5130137;28;20128;-85
2022/12/14 03:15:13;;;;;;;59.30;26.38;;;-5.90;99.90;;;;;;5096397;28;20051;-85
2022/12/14 03:17:38;;;;;;;71.47;28.80;;;-5.10;99.90;;;;;;5096433;28;20534;-86
2022/12/14 03:20:11;;;;;;;68.25;28.67;;;-4.60;99.90;;;;;;5095691;28;20154;-85
2022/12/14 03:22:43;;;;;;;62.58;27.40;;;-4.30;99.90;;;;;;5095686;28;20047;-85
2022/12/14 03:25:13;;;;;;;67.63;29.17;;;-6.00;99.90;;;;;;5096168;28;20082;-85
2022/12/14 03:27:42;;;;;;;65.53;28.80;;;-6.10;99.90;;;;;;5095952;28;20501;-85
2022/12/14 03:30:11;;;;;;;66.45;28.98;;;-6.10;99.90;;;;;;5112900;28;20405;-85
2022/12/14 03:32:39;;;;;;;63.17;28.05;;;-6.10;99.90;;;;;;5095862;28;20086;-85
2022/12/14 03:35:33;;;;;;;70.88;28.92;;;-6.20;99.90;;;;;;5095608;28;20047;-85
2022/12/14 03:38:09;;;;;;;61.00;28.08;;;-6.20;99.90;;;;;;5091322;28;20063;-85
2022/12/14 03:41:02;;;;;;;65.97;27.52;;;-6.20;99.90;;;;;;5096761;28;20047;-85
2022/12/14 03:43:40;;;;;;;70.18;28.98;;;-6.30;99.90;;;;;;5095850;28;20125;-85
2022/12/14 03:46:30;;;;;;;64.53;27.88;;;-6.30;99.90;;;;;;5112867;28;20046;-85
2022/12/14 03:49:01;;;;;;;60.40;27.10;;;-6.40;99.90;;;;;;5098627;28;20039;-85
2022/12/14 03:51:33;;;;;;;59.63;25.83;;;-5.80;99.90;;;;;;5096213;28;20043;-85
2022/12/14 03:54:11;;;;;;;63.58;25.60;;;-6.40;99.90;;;;;;5095561;28;20047;-85
2022/12/14 03:56:38;;;;;;;72.20;29.40;;;-6.30;99.90;;;;;;5095430;28;20439;-86
2022/12/14 03:59:12;;;;;;;63.90;27.77;;;-6.30;99.90;;;;;;5095686;28;20107;-85
2022/12/14 04:01:41;;;;;;;63.72;28.63;;;-6.30;99.90;;;;;;5129684;28;20133;-85
2022/12/14 04:04:17;;;;;;;67.72;29.15;;;-6.40;99.90;;;;;;5129793;28;20138;-85
2022/12/14 04:06:52;;;;;;;72.15;29.90;;;-6.40;99.90;;;;;;5096281;28;20123;-85
2022/12/14 04:09:24;;;;;;;57.78;25.33;;;-6.40;99.90;;;;;;5078987;28;20138;-85
2022/12/14 04:18:55;;;;;;;62.83;28.13;;;-6.30;99.90;;;;;;5103723;27;20063;-85
2022/12/14 04:20:41;;;;;;;65.03;28.83;;;-6.40;99.90;;;;;;5105158;27;20103;-85
2022/12/14 04:23:10;;;;;;;67.88;29.67;;;-6.50;99.90;;;;;;5099605;27;20047;-85
2022/12/14 04:31:11;;;;;;;62.28;28.35;;;-6.60;99.90;;;;;;5119202;27;20145;-84
2022/12/14 04:33:47;;;;;;;64.55;27.95;;;-6.60;99.90;;;;;;5099760;27;20047;-85
2022/12/14 04:36:27;;;;;;;61.38;27.52;;;-5.00;99.90;;;;;;5117605;27;20043;-85
2022/12/14 04:39:05;;;;;;;63.47;27.40;;;-6.70;99.90;;;;;;5083653;27;20055;-84
2022/12/14 04:41:36;;;;;;;67.00;28.67;;;-6.70;99.90;;;;;;5099439;27;20054;-85
2022/12/14 04:44:09;;;;;;;64.15;29.63;;;-6.70;99.90;;;;;;5082366;27;20058;-84
2022/12/14 04:46:35;;;;;;;70.93;29.48;;;-6.70;99.90;;;;;;5099097;27;20062;-85
2022/12/14 04:49:18;;;;;;;73.68;29.77;;;-6.70;99.90;;;;;;5098503;27;20049;-84
2022/12/14 04:52:11;;;;;;;67.97;27.23;;;-6.60;99.90;;;;;;5100748;27;20039;-84
2022/12/14 04:54:54;;;;;;;65.18;29.55;;;-6.50;99.90;;;;;;5099212;27;20100;-85
2022/12/14 04:57:40;;;;;;;72.68;31.10;;;-6.40;99.90;;;;;;5115388;27;20120;-84
2022/12/14 05:00:07;;;;;;;70.85;29.55;;;-6.20;99.90;;;;;;5115662;27;20082;-84
2022/12/14 05:03:01;;;;;;;71.32;29.77;;;-6.20;99.90;;;;;;5115568;27;20043;-84
2022/12/14 05:05:54;;;;;;;76.00;30.25;;;-6.20;99.90;;;;;;5132116;27;20089;-84
2022/12/14 05:08:26;;;;;;;77.07;29.58;;;-6.20;99.90;;;;;;5131735;27;20062;-84
2022/12/14 05:11:10;;;;;;;68.55;28.35;;;-6.30;99.90;;;;;;5132488;27;20091;-85
2022/12/14 05:13:39;;;;;;;70.68;29.73;;;-6.30;99.90;;;;;;5132339;27;20054;-83
2022/12/14 05:16:06;;;;;;;72.22;30.33;;;-6.20;99.90;;;;;;5098526;27;20283;-85
2022/12/14 05:18:33;;;;;;;74.55;30.80;;;-6.20;99.90;;;;;;5098291;27;20059;-84
2022/12/14 05:20:59;;;;;;;68.60;29.75;;;-6.20;99.90;;;;;;5098075;27;20057;-84
2022/12/14 05:23:25;;;;;;;73.45;32.03;;;-6.20;99.90;;;;;;5097390;27;20043;-85
2022/12/14 05:25:50;;;;;;;73.38;30.15;;;-5.60;99.90;;;;;;5132115;27;20055;-84
2022/12/14 05:28:16;;;;;;;72.63;29.63;;;-6.30;99.90;;;;;;5131581;27;20082;-85
2022/12/14 05:30:42;;;;;;;71.00;29.80;;;-6.30;99.90;;;;;;5097562;27;20047;-84
2022/12/14 05:33:15;;;;;;;71.13;29.63;;;-6.30;99.90;;;;;;5097108;27;20050;-84
2022/12/14 05:35:40;;;;;;;56.07;22.07;;;-6.30;99.90;;;;;;5115369;27;20055;-85
2022/12/14 05:38:08;;;;;;;74.63;29.33;;;-6.30;99.90;;;;;;5131609;27;20099;-85
2022/12/14 05:40:34;;;;;;;70.75;30.08;;;-6.40;99.90;;;;;;5114709;27;20368;-85
2022/12/14 05:43:08;;;;;;;79.90;29.85;;;-6.30;99.90;;;;;;5097320;27;20112;-85
2022/12/14 05:45:33;;;;;;;77.93;31.17;;;-6.40;99.90;;;;;;5080911;27;20090;-86
2022/12/14 05:47:59;;;;;;;67.32;28.02;;;-6.40;99.90;;;;;;5131181;27;20358;-86
2022/12/14 05:50:25;;;;;;;74.90;28.38;;;-6.40;99.90;;;;;;5131416;27;20115;-86
2022/12/14 05:52:51;;;;;;;71.93;28.55;;;-6.50;99.90;;;;;;5113714;27;20155;-86
2022/12/14 05:55:17;;;;;;;69.28;28.40;;;-5.80;99.90;;;;;;5113859;27;20043;-86
2022/12/14 05:57:42;;;;;;;72.53;29.80;;;-5.20;99.90;;;;;;5130863;27;20055;-86
2022/12/14 06:00:09;;;;;;;71.30;29.42;;;-6.60;99.90;;;;;;5131304;27;20043;-85
2022/12/14 06:02:34;;;;;;;69.10;28.77;;;-6.60;99.90;;;;;;5114239;27;20047;-86
2022/12/14 06:05:00;;;;;;;73.25;28.98;;;-6.60;99.90;;;;;;5080606;27;20055;-86
2022/12/14 06:07:26;;;;;;;66.00;27.58;;;-6.60;99.90;;;;;;5113910;27;20046;-86
2022/12/14 06:09:51;;;;;;;73.03;28.92;;;-6.60;99.90;;;;;;5130598;27;20142;-86
2022/12/14 06:12:17;;;;;;;74.63;28.85;;;-6.20;99.90;;;;;;5097231;27;20047;-86
2022/12/14 06:14:43;;;;;;;75.20;27.52;;;-6.60;99.90;;;;;;5097038;27;20047;-85
2022/12/14 06:17:08;;;;;;;66.35;27.80;;;-6.50;99.90;;;;;;5125942;27;20118;-85
2022/12/14 06:19:34;;;;;;;68.38;28.58;;;-6.60;99.90;;;;;;5076486;28;20055;-85
2022/12/14 06:22:00;;;;;;;71.15;27.75;;;-6.60;99.90;;;;;;5076736;28;20051;-85
2022/12/14 06:24:25;;;;;;;65.28;26.83;;;-6.60;99.90;;;;;;5109632;28;20047;-85
2022/12/14 06:26:51;;;;;;;62.80;26.58;;;-6.60;99.90;;;;;;5093210;28;20099;-85
2022/12/14 06:29:19;;;;;;;64.00;27.20;;;-6.70;99.90;;;;;;5093183;28;20039;-85
2022/12/14 06:31:45;;;;;;;60.85;24.90;;;-6.70;99.90;;;;;;5076332;28;20047;-85
2022/12/14 06:34:11;;;;;;;64.15;26.95;;;-6.70;99.90;;;;;;5093240;28;20055;-85
2022/12/14 06:36:38;;;;;;;65.70;27.60;;;-6.80;99.90;;;;;;5110104;28;20047;-85
2022/12/14 06:39:06;;;;;;;63.60;25.65;;;-5.40;99.90;;;;;;5075965;28;20080;-84
2022/12/14 06:41:31;;;;;;;65.78;27.88;;;-6.80;99.90;;;;;;5076332;28;20055;-85
2022/12/14 06:44:04;;;;;;;69.15;26.73;;;-6.80;99.90;;;;;;5109649;28;20368;-86
2022/12/14 06:46:30;;;;;;;67.40;27.15;;;-6.70;99.90;;;;;;5076522;28;20055;-86
2022/12/14 06:48:55;;;;;;;59.45;26.00;;;-6.60;99.90;;;;;;5094611;28;20059;-87
2022/12/14 06:51:21;;;;;;;69.30;27.77;;;-6.80;99.90;;;;;;5093002;28;20479;-86
2022/12/14 06:53:51;;;;;;;60.78;25.50;;;-6.80;99.90;;;;;;5058959;28;20100;-85
2022/12/14 06:56:17;;;;;;;63.08;24.83;;;-6.90;99.90;;;;;;5093105;28;20379;-85
2022/12/14 06:58:43;;;;;;;63.45;26.35;;;-6.90;99.90;;;;;;5109766;28;20058;-85
2022/12/14 07:01:12;;;;;;;62.58;25.35;;;-6.00;99.90;;;;;;5075818;28;20083;-86
2022/12/14 07:03:38;;;;;;;61.80;25.77;;;-6.90;99.90;;;;;;5059683;28;20487;-84
2022/12/14 07:06:04;;;;;;;63.08;25.63;;;-6.90;99.90;;;;;;5076259;28;20059;-85
2022/12/14 07:08:30;;;;;;;60.10;23.63;;;-6.90;99.90;;;;;;5086096;27;20588;-86
2022/12/14 07:10:56;;;;;;;60.83;25.73;;;-6.90;99.90;;;;;;5099884;27;20062;-86
2022/12/14 07:13:22;;;;;;;60.05;24.02;;;-5.20;99.90;;;;;;5082500;27;20046;-86
2022/12/14 07:15:54;;;;;;;62.75;24.40;;;-6.90;99.90;;;;;;5099851;27;20051;-85
2022/12/14 07:18:19;;;;;;;59.83;24.15;;;-6.80;99.90;;;;;;5116616;27;20051;-85
2022/12/14 07:20:55;;;;;;;55.28;24.65;;;-6.80;99.90;;;;;;5116441;27;20054;-85
2022/12/14 07:23:21;;;;;;;57.75;24.63;;;-6.00;99.90;;;;;;5116154;27;20169;-84
2022/12/14 07:25:46;;;;;;;56.95;25.45;;;-5.40;99.90;;;;;;5133916;27;20127;-85
2022/12/14 07:28:12;;;;;;;58.30;25.10;;;-7.00;99.90;;;;;;5133117;27;20043;-85
2022/12/14 07:30:38;;;;;;;60.30;26.15;;;-7.00;99.90;;;;;;5133330;27;20038;-86
2022/12/14 07:33:03;;;;;;;59.42;25.00;;;-7.10;99.90;;;;;;5133277;27;20129;-84
2022/12/14 07:35:29;;;;;;;60.33;24.55;;;-7.10;99.90;;;;;;5099186;27;20138;-88
2022/12/14 07:37:54;;;;;;;56.55;24.67;;;-7.00;99.90;;;;;;5116748;27;20042;-85
2022/12/14 07:40:20;;;;;;;55.33;25.08;;;-7.10;99.90;;;;;;5116514;27;20043;-85
2022/12/14 07:42:49;;;;;;;62.35;23.77;;;-7.00;99.90;;;;;;5116678;27;20473;-84
2022/12/14 07:45:15;;;;;;;59.15;23.38;;;-7.00;99.90;;;;;;5116406;27;20078;-85
2022/12/14 07:47:41;;;;;;;56.45;22.77;;;-7.00;99.90;;;;;;5133162;27;20129;-85
2022/12/14 07:50:07;;;;;;;53.42;23.35;;;-7.00;99.90;;;;;;5117220;27;20594;-85
2022/12/14 07:52:32;;;;;;;54.97;23.90;;;-7.00;99.90;;;;;;5120325;27;20126;-85
2022/12/14 07:54:58;;;;;;;56.72;24.50;;;-6.10;99.90;;;;;;5119947;27;20394;-85
2022/12/14 07:57:23;;;;;;;64.38;25.85;;;-7.10;99.90;;;;;;5120249;27;20099;-85
2022/12/14 07:59:49;;;;;;;58.03;25.33;;;-7.10;99.90;;;;;;5155474;27;20125;-86
2022/12/14 08:02:15;;;;;;;53.65;24.38;;;-7.10;99.90;;;;;;5119795;27;20045;-85
2022/12/14 08:04:40;;;;;;;57.90;25.38;;;-7.10;99.90;;;;;;5119981;27;20050;-85
2022/12/14 08:07:06;;;;;;;58.75;25.30;;;-7.10;99.90;;;;;;5085554;27;20043;-84
2022/12/14 08:09:32;;;;;;;59.55;26.13;;;-7.00;99.90;;;;;;5102634;27;20061;-85
2022/12/14 08:11:57;;;;;;;58.92;24.48;;;-7.00;99.90;;;;;;5137002;27;20054;-84
2022/12/14 08:14:23;;;;;;;58.58;24.83;;;-7.00;99.90;;;;;;5119795;27;20461;-85
2022/12/14 08:16:49;;;;;;;62.17;25.27;;;-7.00;99.90;;;;;;5119429;27;20046;-85
2022/12/14 08:19:15;;;;;;;81.25;31.17;;;-6.90;99.90;;;;;;5085657;27;20043;-85
2022/12/14 08:21:41;;;;;;;61.90;26.25;;;-6.80;99.90;;;;;;5085491;27;20050;-84
2022/12/14 08:24:08;;;;;;;59.17;24.27;;;-6.80;99.90;;;;;;5118923;27;20485;-84
2022/12/14 08:26:34;;;;;;;52.55;22.20;;;-6.80;99.90;;;;;;5119198;27;20035;-85
2022/12/14 08:28:59;;;;;;;53.05;22.15;;;-6.70;99.90;;;;;;5136110;27;20158;-84
2022/12/14 08:31:26;;;;;;;53.60;23.50;;;-6.50;99.90;;;;;;5119036;27;20050;-85
2022/12/14 08:33:52;;;;;;;59.70;23.75;;;-6.50;99.90;;;;;;5119714;27;20123;-84
2022/12/14 08:36:23;;;;;;;61.10;24.25;;;-6.50;99.90;;;;;;5102716;27;20043;-85
2022/12/14 08:38:56;;;;;;;57.63;24.02;;;-6.50;99.90;;;;;;5086372;27;20038;-85
2022/12/14 08:41:22;;;;;;;58.80;26.38;;;-6.30;99.90;;;;;;5102609;27;20055;-86
2022/12/14 08:43:51;;;;;;;64.30;26.80;;;-6.10;99.90;;;;;;5120405;27;20049;-86
2022/12/14 08:46:17;;;;;;;62.60;26.35;;;-5.70;99.90;;;;;;5121206;27;20047;-87
2022/12/14 08:48:43;;;;;;;61.38;26.33;;;-3.80;99.90;;;;;;5119721;27;20123;-85
2022/12/14 08:51:09;;;;;;;66.55;27.08;;;-4.50;99.90;;;;;;5119059;27;20465;-87
2022/12/14 08:53:35;;;;;;;58.30;25.75;;;-4.00;99.90;;;;;;5101762;27;20043;-87
2022/12/14 08:56:09;;;;;;;68.38;27.60;;;-3.30;99.90;;;;;;5101665;27;20047;-87
2022/12/14 08:58:35;;;;;;;62.00;24.52;;;-2.60;99.90;;;;;;5102373;27;20129;-85
2022/12/14 09:01:05;;;;;;;60.22;26.48;;;-2.10;99.90;;;;;;5101197;27;20138;-86
2022/12/14 09:03:31;;;;;;;57.83;26.08;;;-1.60;99.90;;;;;;5118253;27;20054;-85
2022/12/14 09:05:59;;;;;;;51.65;24.40;;;-1.40;99.90;;;;;;5135384;27;20039;-84
2022/12/14 09:08:25;;;;;;;48.80;23.73;;;-1.40;99.90;;;;;;5085538;27;20073;-85
2022/12/14 09:10:51;;;;;;;46.35;21.42;;;-1.00;99.90;;;;;;5118328;27;20725;-83
2022/12/14 09:13:17;;;;;;;43.85;21.85;;;-1.70;99.90;;;;;;5118198;27;20065;-86
2022/12/14 09:15:43;;;;;;;46.50;21.73;;;-1.40;99.90;;;;;;5084230;27;20050;-84
2022/12/14 09:18:08;;;;;;;45.90;21.63;;;-1.10;99.90;;;;;;5135162;27;20445;-84
2022/12/14 09:20:34;;;;;;;41.28;20.13;;;-1.10;99.90;;;;;;5135727;27;20109;-84
2022/12/14 09:22:59;;;;;;;40.53;20.65;;;-1.40;99.90;;;;;;5101025;27;20099;-85
2022/12/14 09:25:25;;;;;;;40.70;20.55;;;-1.40;99.90;;;;;;5135182;27;20048;-85
2022/12/14 09:27:51;;;;;;;39.83;20.35;;;-1.70;99.90;;;;;;5100923;27;20046;-86
2022/12/14 09:30:16;;;;;;;37.80;19.75;;;-2.00;99.90;;;;;;5100912;27;20039;-85
2022/12/14 09:32:45;;;;;;;43.75;19.17;;;-2.20;99.90;;;;;;5117821;27;20047;-84
2022/12/14 09:35:11;;;;;;;43.00;21.00;;;-2.50;99.90;;;;;;5118637;27;20386;-84
2022/12/14 09:37:37;;;;;;;37.70;19.55;;;-2.70;99.90;;;;;;5096757;27;20069;-84
2022/12/14 09:40:04;;;;;;;40.95;19.50;;;-2.70;99.90;;;;;;5096964;27;20062;-83
2022/12/14 09:42:44;;;;;;;43.53;20.10;;;-2.60;99.90;;;;;;5097350;27;20525;-86
2022/12/14 09:45:24;;;;;;;39.35;19.50;;;-2.60;99.90;;;;;;5097075;27;20497;-84
2022/12/14 09:47:50;;;;;;;37.88;18.80;;;-2.80;99.90;;;;;;5096978;27;20050;-85
2022/12/14 09:50:19;;;;;;;37.63;18.70;;;-3.00;99.90;;;;;;5113748;27;20051;-83
2022/12/14 09:52:50;;;;;;;38.55;17.77;;;-3.10;99.90;;;;;;5111741;27;20446;-85
2022/12/14 09:55:32;;;;;;;40.60;18.70;;;-2.80;99.90;;;;;;5116470;27;20043;-85
2022/12/14 09:58:06;;;;;;;42.15;19.15;;;-3.10;99.90;;;;;;5116827;27;20098;-85
2022/12/14 10:00:34;;;;;;;38.45;18.30;;;-2.40;99.90;;;;;;5099904;27;20051;-84
2022/12/14 10:03:29;;;;;;;40.05;19.40;;;-2.80;99.90;;;;;;5100039;27;20130;-84
2022/12/14 10:05:55;;;;;;;39.03;18.42;;;-3.00;99.90;;;;;;5133742;27;20137;-84
2022/12/14 10:08:31;;;;;;;39.65;19.33;;;-2.80;99.90;;;;;;5133663;27;20133;-85
2022/12/14 10:11:06;;;;;;;42.40;20.25;;;-2.70;99.90;;;;;;5080210;27;20119;-84
2022/12/14 10:13:49;;;;;;;39.53;18.77;;;-2.60;99.90;;;;;;5113359;27;20058;-84
2022/12/14 10:16:30;;;;;;;36.90;17.85;;;-1.90;99.90;;;;;;5097262;27;20119;-84
2022/12/14 10:19:17;;;;;;;36.75;18.13;;;-2.80;99.90;;;;;;5096502;27;20070;-84
2022/12/14 10:22:05;;;;;;;38.63;18.48;;;-2.90;99.90;;;;;;5107609;28;20047;-85
2022/12/14 10:24:53;;;;;;;36.40;18.05;;;-2.90;99.90;;;;;;5092353;28;20241;-84
2022/12/14 10:27:25;;;;;;;36.88;17.73;;;-2.10;99.90;;;;;;5060146;28;20056;-84
2022/12/14 10:29:59;;;;;;;32.90;16.65;;;-3.10;99.90;;;;;;5093317;28;20047;-83
2022/12/14 10:32:32;;;;;;;32.70;16.73;;;-1.80;99.90;;;;;;5093081;28;20049;-83
2022/12/14 10:34:59;;;;;;;37.08;17.30;;;-2.90;99.90;;;;;;5094264;28;20073;-84
2022/12/14 10:37:35;;;;;;;33.42;16.15;;;-2.70;99.90;;;;;;5092969;28;20517;-84
2022/12/14 10:40:26;;;;;;;37.72;17.50;;;-1.90;99.90;;;;;;5093389;28;20735;-83
2022/12/14 10:42:56;;;;;;;31.17;16.30;;;-3.00;99.90;;;;;;5092881;28;20498;-83
2022/12/14 10:45:46;;;;;;;31.33;17.08;;;-2.30;99.90;;;;;;5092855;28;20083;-84
2022/12/14 10:48:24;;;;;;;32.13;16.45;;;-2.80;99.90;;;;;;5092659;28;20054;-84
2022/12/14 10:51:13;;;;;;;29.10;14.98;;;-2.90;99.90;;;;;;5092987;28;20054;-84
2022/12/14 10:53:50;;;;;;;34.45;15.30;;;-2.90;99.90;;;;;;5092011;28;20091;-86
2022/12/14 10:56:25;;;;;;;33.40;16.23;;;-2.90;99.90;;;;;;5077708;28;20058;-84
2022/12/14 10:59:28;;;;;;;34.97;17.58;;;-2.90;99.90;;;;;;5077773;28;20494;-84
2022/12/14 11:02:29;;;;;;;32.70;16.80;;;-2.90;99.90;;;;;;5110115;28;20043;-84
2022/12/14 11:04:59;;;;;;;33.97;15.93;;;-2.90;99.90;;;;;;5034309;28;20056;-84
2022/12/14 11:07:35;;;;;;;28.65;15.82;;;-2.90;99.90;;;;;;5051552;28;20064;-85
2022/12/14 11:10:22;;;;;;;30.00;15.57;;;-2.90;99.90;;;;;;5067241;28;20063;-85
2022/12/14 11:13:08;;;;;;;30.75;16.73;;;-2.90;99.90;;;;;;5092976;28;20403;-84
2022/12/14 11:15:36;;;;;;;34.20;16.65;;;-2.80;99.90;;;;;;5075988;28;20126;-84
2022/12/14 11:18:11;;;;;;;30.45;16.50;;;-2.70;99.90;;;;;;5092805;28;20056;-87
2022/12/14 11:20:37;;;;;;;33.42;17.05;;;-2.80;99.90;;;;;;5093238;28;20100;-88
2022/12/14 11:23:13;;;;;;;32.67;16.60;;;-1.40;99.90;;;;;;5092045;28;20044;-87
2022/12/14 11:25:41;;;;;;;31.55;16.27;;;-2.70;99.90;;;;;;5096272;28;20050;-87
2022/12/14 11:28:35;;;;;;;32.13;16.42;;;-2.60;99.90;;;;;;5096433;28;20044;-87
2022/12/14 11:31:11;;;;;;;34.83;16.50;;;-1.60;99.90;;;;;;5094112;28;20063;-87
2022/12/14 11:33:42;;;;;;;31.38;16.52;;;-2.40;99.90;;;;;;5079870;28;20077;-87
2022/12/14 11:36:08;;;;;;;32.00;15.93;;;-1.60;99.90;;;;;;5113220;28;20040;-87
2022/12/14 11:38:34;;;;;;;37.22;18.60;;;-2.20;99.90;;;;;;5097097;28;20059;-89
2022/12/14 11:41:01;;;;;;;38.72;17.52;;;-2.10;99.90;;;;;;5097045;28;20048;-87
2022/12/14 11:43:29;;;;;;;37.78;17.83;;;-2.10;99.90;;;;;;5113982;28;20126;-86
2022/12/14 11:45:55;;;;;;;37.08;17.08;;;-2.10;99.90;;;;;;5080025;28;20055;-88
2022/12/14 11:48:26;;;;;;;35.53;17.70;;;-2.00;99.90;;;;;;5096919;28;20078;-86
2022/12/14 11:50:53;;;;;;;33.45;17.15;;;-0.30;99.90;;;;;;5096420;28;20164;-87
2022/12/14 11:53:20;;;;;;;32.17;16.70;;;-1.80;99.90;;;;;;5113679;28;20048;-86
2022/12/14 11:55:55;;;;;;;34.95;15.50;;;-1.70;99.90;;;;;;5113250;28;20036;-84
2022/12/14 11:58:30;;;;;;;37.53;17.67;;;-1.50;99.90;;;;;;5114253;28;20125;-86
2022/12/14 12:01:10;;;;;;;36.40;17.55;;;-1.60;99.90;;;;;;5097680;28;20058;-88
2022/12/14 12:03:40;;;;;;;36.55;18.70;;;-1.40;99.90;;;;;;5080342;28;20055;-87
2022/12/14 12:06:08;;;;;;;32.95;16.15;;;-1.70;99.90;;;;;;5114161;28;20051;-87
2022/12/14 12:08:35;;;;;;;36.72;18.17;;;-1.70;99.90;;;;;;5096447;28;20065;-89
2022/12/14 12:11:21;;;;;;;37.45;18.90;;;-0.20;99.90;;;;;;5113336;28;20142;-87
2022/12/14 12:13:50;;;;;;;35.40;18.42;;;-0.20;99.90;;;;;;5114067;28;20519;-85
2022/12/14 12:16:22;;;;;;;37.80;18.65;;;-1.70;99.90;;;;;;5097081;28;20047;-89
2022/12/14 12:19:05;;;;;;;34.83;17.17;;;-1.70;99.90;;;;;;5079125;28;20043;-86
2022/12/14 12:21:32;;;;;;;37.70;17.52;;;-1.60;99.90;;;;;;5115852;28;20051;-91
2022/12/14 12:24:17;;;;;;;36.78;19.33;;;-1.40;99.90;;;;;;5097583;28;20797;-85
2022/12/14 12:26:57;;;;;;;37.17;18.30;;;-1.60;99.90;;;;;;5113079;28;20102;-86
2022/12/14 12:29:32;;;;;;;34.45;16.92;;;-1.60;99.90;;;;;;5113078;28;20146;-84
2022/12/14 12:32:22;;;;;;;33.70;17.65;;;-1.60;99.90;;;;;;5113260;28;20054;-85
2022/12/14 12:35:16;;;;;;;34.65;16.83;;;-1.60;99.90;;;;;;5095866;28;20054;-85
2022/12/14 12:37:43;;;;;;;33.38;17.70;;;-1.70;99.90;;;;;;5088940;28;20059;-85
2022/12/14 12:40:15;;;;;;;32.40;16.63;;;-1.70;99.90;;;;;;5112568;28;20054;-84
2022/12/14 12:42:52;;;;;;;31.95;16.67;;;-1.60;99.90;;;;;;5095559;28;20060;-87
2022/12/14 12:45:20;;;;;;;35.13;18.10;;;-1.60;99.90;;;;;;5095636;28;20040;-87
2022/12/14 12:47:54;;;;;;;33.20;17.35;;;-1.50;99.90;;;;;;5095483;28;20040;-85
2022/12/14 12:50:29;;;;;;;36.58;18.00;;;-1.60;99.90;;;;;;5096119;28;20118;-91
2022/12/14 12:53:04;;;;;;;;;;;-1.60;99.90;;;;;;5080968;28;20479;-88
2022/12/14 12:55:31;;;;;;;31.42;16.70;;;-1.60;99.90;;;;;;5113374;28;19919;-88
2022/12/14 12:57:57;;;;;;;31.60;15.85;;;-1.70;99.90;;;;;;5079715;28;20043;-90
2022/12/14 13:00:24;;;;;;;34.03;17.48;;;-1.10;99.90;;;;;;5096238;28;20180;-89